sensor_id;sensor_type;location;lat;lon;timestamp;P1;durP1;ratioP1;P2;durP2;ratioP2
4986;SDS011;12674;51.500;7.552;2022-08-19T00:01:53;14.30;;;11.25;;
4986;SDS011;12674;51.500;7.552;2022-08-19T00:03:58;18.05;;;10.98;;
4986;SDS011;12674;51.500;7.552;2022-08-19T00:06:02;13.52;;;10.57;;
4986;SDS011;12674;51.500;7.552;2022-08-19T00:08:09;13.52;;;10.30;;
4986;SDS011;12674;51.500;7.552;2022-08-19T00:10:13;12.00;;;9.88;;
4986;SDS011;12674;51.500;7.552;2022-08-19T00:12:17;16.27;;;10.55;;
4986;SDS011;12674;51.500;7.552;2022-08-19T00:14:22;11.43;;;10.23;;
4986;SDS011;12674;51.500;7.552;2022-08-19T00:16:26;11.40;;;9.70;;
4986;SDS011;12674;51.500;7.552;2022-08-19T00:18:29;11.23;;;10.02;;
4986;SDS011;12674;51.500;7.552;2022-08-19T00:20:33;13.18;;;10.25;;
4986;SDS011;12674;51.500;7.552;2022-08-19T00:22:36;14.68;;;10.68;;
4986;SDS011;12674;51.500;7.552;2022-08-19T00:24:42;13.18;;;10.38;;
4986;SDS011;12674;51.500;7.552;2022-08-19T00:26:51;12.95;;;10.07;;
4986;SDS011;12674;51.500;7.552;2022-08-19T00:28:55;11.75;;;10.23;;
4986;SDS011;12674;51.500;7.552;2022-08-19T00:30:59;11.27;;;10.05;;
4986;SDS011;12674;51.500;7.552;2022-08-19T00:33:05;16.60;;;10.35;;
4986;SDS011;12674;51.500;7.552;2022-08-19T00:35:09;9.98;;;8.88;;
4986;SDS011;12674;51.500;7.552;2022-08-19T00:37:12;10.85;;;9.50;;
4986;SDS011;12674;51.500;7.552;2022-08-19T00:39:15;10.75;;;9.52;;
4986;SDS011;12674;51.500;7.552;2022-08-19T00:41:19;11.60;;;9.63;;
4986;SDS011;12674;51.500;7.552;2022-08-19T00:43:25;11.52;;;9.88;;
4986;SDS011;12674;51.500;7.552;2022-08-19T00:45:29;11.05;;;9.48;;
4986;SDS011;12674;51.500;7.552;2022-08-19T00:47:38;9.65;;;8.68;;
4986;SDS011;12674;51.500;7.552;2022-08-19T00:49:43;11.07;;;9.77;;
4986;SDS011;12674;51.500;7.552;2022-08-19T00:51:53;12.05;;;10.32;;
4986;SDS011;12674;51.500;7.552;2022-08-19T00:53:59;11.18;;;9.90;;
4986;SDS011;12674;51.500;7.552;2022-08-19T00:56:06;10.05;;;9.02;;
4986;SDS011;12674;51.500;7.552;2022-08-19T00:58:11;12.60;;;9.07;;
4986;SDS011;12674;51.500;7.552;2022-08-19T01:00:18;12.80;;;9.35;;
4986;SDS011;12674;51.500;7.552;2022-08-19T01:02:21;13.45;;;9.32;;
4986;SDS011;12674;51.500;7.552;2022-08-19T01:04:26;14.27;;;9.07;;
4986;SDS011;12674;51.500;7.552;2022-08-19T01:06:29;13.32;;;9.50;;
4986;SDS011;12674;51.500;7.552;2022-08-19T01:08:33;13.10;;;9.00;;
4986;SDS011;12674;51.500;7.552;2022-08-19T01:10:37;12.10;;;9.85;;
4986;SDS011;12674;51.500;7.552;2022-08-19T01:12:43;9.98;;;8.68;;
4986;SDS011;12674;51.500;7.552;2022-08-19T01:14:46;10.90;;;8.90;;
4986;SDS011;12674;51.500;7.552;2022-08-19T01:16:49;11.50;;;9.52;;
4986;SDS011;12674;51.500;7.552;2022-08-19T01:18:55;10.98;;;8.90;;
4986;SDS011;12674;51.500;7.552;2022-08-19T01:21:01;10.02;;;8.77;;
4986;SDS011;12674;51.500;7.552;2022-08-19T01:23:10;17.40;;;9.45;;
4986;SDS011;12674;51.500;7.552;2022-08-19T01:25:13;11.38;;;9.52;;
4986;SDS011;12674;51.500;7.552;2022-08-19T01:27:17;15.98;;;8.75;;
4986;SDS011;12674;51.500;7.552;2022-08-19T01:29:20;9.40;;;8.50;;
4986;SDS011;12674;51.500;7.552;2022-08-19T01:31:26;9.32;;;7.57;;
4986;SDS011;12674;51.500;7.552;2022-08-19T01:33:33;8.98;;;8.05;;
4986;SDS011;12674;51.500;7.552;2022-08-19T01:35:36;10.13;;;8.65;;
4986;SDS011;12674;51.500;7.552;2022-08-19T01:37:43;11.57;;;8.15;;
4986;SDS011;12674;51.500;7.552;2022-08-19T01:39:51;13.07;;;8.15;;
4986;SDS011;12674;51.500;7.552;2022-08-19T01:41:54;10.63;;;8.05;;
4986;SDS011;12674;51.500;7.552;2022-08-19T01:43:57;9.95;;;8.45;;
4986;SDS011;12674;51.500;7.552;2022-08-19T01:46:18;11.95;;;9.23;;
4986;SDS011;12674;51.500;7.552;2022-08-19T01:48:25;9.40;;;8.40;;
4986;SDS011;12674;51.500;7.552;2022-08-19T01:50:31;9.52;;;8.18;;
4986;SDS011;12674;51.500;7.552;2022-08-19T01:52:34;11.32;;;9.57;;
4986;SDS011;12674;51.500;7.552;2022-08-19T01:54:38;16.15;;;8.18;;
4986;SDS011;12674;51.500;7.552;2022-08-19T01:56:42;8.52;;;7.60;;
4986;SDS011;12674;51.500;7.552;2022-08-19T01:58:48;12.95;;;8.48;;
4986;SDS011;12674;51.500;7.552;2022-08-19T02:00:53;11.52;;;8.88;;
4986;SDS011;12674;51.500;7.552;2022-08-19T02:02:56;10.73;;;9.13;;
4986;SDS011;12674;51.500;7.552;2022-08-19T02:04:59;9.82;;;8.82;;
4986;SDS011;12674;51.500;7.552;2022-08-19T02:07:02;11.02;;;8.70;;
4986;SDS011;12674;51.500;7.552;2022-08-19T02:09:05;10.10;;;8.32;;
4986;SDS011;12674;51.500;7.552;2022-08-19T02:11:09;9.30;;;7.63;;
4986;SDS011;12674;51.500;7.552;2022-08-19T02:13:23;9.18;;;8.32;;
4986;SDS011;12674;51.500;7.552;2022-08-19T02:15:27;10.50;;;8.38;;
4986;SDS011;12674;51.500;7.552;2022-08-19T02:17:30;12.88;;;8.23;;
4986;SDS011;12674;51.500;7.552;2022-08-19T02:19:33;13.73;;;8.90;;
4986;SDS011;12674;51.500;7.552;2022-08-19T02:21:39;11.45;;;8.13;;
4986;SDS011;12674;51.500;7.552;2022-08-19T02:23:43;11.23;;;9.55;;
4986;SDS011;12674;51.500;7.552;2022-08-19T02:25:46;12.38;;;9.05;;
4986;SDS011;12674;51.500;7.552;2022-08-19T02:27:50;10.65;;;9.55;;
4986;SDS011;12674;51.500;7.552;2022-08-19T02:29:56;12.52;;;11.25;;
4986;SDS011;12674;51.500;7.552;2022-08-19T02:31:59;12.13;;;10.77;;
4986;SDS011;12674;51.500;7.552;2022-08-19T02:34:02;11.30;;;10.10;;
4986;SDS011;12674;51.500;7.552;2022-08-19T02:36:06;8.90;;;8.00;;
4986;SDS011;12674;51.500;7.552;2022-08-19T02:38:10;10.27;;;9.15;;
4986;SDS011;12674;51.500;7.552;2022-08-19T02:40:27;9.23;;;8.32;;
4986;SDS011;12674;51.500;7.552;2022-08-19T02:42:30;12.20;;;9.63;;
4986;SDS011;12674;51.500;7.552;2022-08-19T02:44:33;10.77;;;9.63;;
4986;SDS011;12674;51.500;7.552;2022-08-19T02:46:37;11.77;;;9.27;;
4986;SDS011;12674;51.500;7.552;2022-08-19T02:48:41;9.77;;;8.77;;
4986;SDS011;12674;51.500;7.552;2022-08-19T02:50:44;13.80;;;10.18;;
4986;SDS011;12674;51.500;7.552;2022-08-19T02:52:54;11.27;;;10.15;;
4986;SDS011;12674;51.500;7.552;2022-08-19T02:54:57;13.98;;;12.35;;
4986;SDS011;12674;51.500;7.552;2022-08-19T02:57:00;15.43;;;11.90;;
4986;SDS011;12674;51.500;7.552;2022-08-19T02:59:03;12.68;;;10.75;;
4986;SDS011;12674;51.500;7.552;2022-08-19T03:01:19;14.90;;;10.77;;
4986;SDS011;12674;51.500;7.552;2022-08-19T03:03:24;22.63;;;13.30;;
4986;SDS011;12674;51.500;7.552;2022-08-19T03:05:28;12.27;;;10.90;;
4986;SDS011;12674;51.500;7.552;2022-08-19T03:07:51;12.73;;;11.43;;
4986;SDS011;12674;51.500;7.552;2022-08-19T03:09:54;12.52;;;11.20;;
4986;SDS011;12674;51.500;7.552;2022-08-19T03:11:57;15.30;;;12.45;;
4986;SDS011;12674;51.500;7.552;2022-08-19T03:14:00;13.57;;;11.52;;
4986;SDS011;12674;51.500;7.552;2022-08-19T03:16:04;16.00;;;11.82;;
4986;SDS011;12674;51.500;7.552;2022-08-19T03:18:08;13.27;;;11.82;;
4986;SDS011;12674;51.500;7.552;2022-08-19T03:20:14;17.40;;;12.00;;
4986;SDS011;12674;51.500;7.552;2022-08-19T03:22:17;12.75;;;10.90;;
4986;SDS011;12674;51.500;7.552;2022-08-19T03:24:21;13.60;;;12.20;;
4986;SDS011;12674;51.500;7.552;2022-08-19T03:26:24;13.50;;;11.80;;
4986;SDS011;12674;51.500;7.552;2022-08-19T03:28:27;17.25;;;12.15;;
4986;SDS011;12674;51.500;7.552;2022-08-19T03:30:30;12.45;;;10.85;;
4986;SDS011;12674;51.500;7.552;2022-08-19T03:32:34;13.43;;;11.38;;
4986;SDS011;12674;51.500;7.552;2022-08-19T03:34:45;15.52;;;10.82;;
4986;SDS011;12674;51.500;7.552;2022-08-19T03:36:50;13.85;;;11.55;;
4986;SDS011;12674;51.500;7.552;2022-08-19T03:38:53;15.90;;;11.35;;
4986;SDS011;12674;51.500;7.552;2022-08-19T03:41:02;12.50;;;10.85;;
4986;SDS011;12674;51.500;7.552;2022-08-19T03:43:09;12.23;;;10.35;;
4986;SDS011;12674;51.500;7.552;2022-08-19T03:45:12;12.38;;;10.80;;
4986;SDS011;12674;51.500;7.552;2022-08-19T03:47:15;12.82;;;11.27;;
4986;SDS011;12674;51.500;7.552;2022-08-19T03:49:18;14.15;;;12.13;;
4986;SDS011;12674;51.500;7.552;2022-08-19T03:51:30;12.40;;;10.80;;
4986;SDS011;12674;51.500;7.552;2022-08-19T03:53:35;12.52;;;11.13;;
4986;SDS011;12674;51.500;7.552;2022-08-19T03:55:39;13.13;;;11.27;;
4986;SDS011;12674;51.500;7.552;2022-08-19T03:57:43;14.65;;;12.77;;
4986;SDS011;12674;51.500;7.552;2022-08-19T03:59:46;15.27;;;13.25;;
4986;SDS011;12674;51.500;7.552;2022-08-19T04:01:49;16.40;;;12.93;;
4986;SDS011;12674;51.500;7.552;2022-08-19T04:03:52;14.85;;;13.32;;
4986;SDS011;12674;51.500;7.552;2022-08-19T04:05:56;15.10;;;13.40;;
4986;SDS011;12674;51.500;7.552;2022-08-19T04:07:59;16.38;;;13.73;;
4986;SDS011;12674;51.500;7.552;2022-08-19T04:10:04;17.33;;;14.05;;
4986;SDS011;12674;51.500;7.552;2022-08-19T04:12:11;17.40;;;14.40;;
4986;SDS011;12674;51.500;7.552;2022-08-19T04:14:15;18.70;;;13.98;;
4986;SDS011;12674;51.500;7.552;2022-08-19T04:16:20;16.85;;;11.80;;
4986;SDS011;12674;51.500;7.552;2022-08-19T04:18:35;13.75;;;12.00;;
4986;SDS011;12674;51.500;7.552;2022-08-19T04:20:39;15.77;;;12.93;;
4986;SDS011;12674;51.500;7.552;2022-08-19T04:22:46;17.70;;;13.70;;
4986;SDS011;12674;51.500;7.552;2022-08-19T04:24:49;19.15;;;13.27;;
4986;SDS011;12674;51.500;7.552;2022-08-19T04:26:53;20.08;;;12.65;;
4986;SDS011;12674;51.500;7.552;2022-08-19T04:28:57;27.95;;;14.90;;
4986;SDS011;12674;51.500;7.552;2022-08-19T04:31:00;18.60;;;13.60;;
4986;SDS011;12674;51.500;7.552;2022-08-19T04:33:05;18.95;;;14.07;;
4986;SDS011;12674;51.500;7.552;2022-08-19T04:35:09;17.30;;;14.77;;
4986;SDS011;12674;51.500;7.552;2022-08-19T04:37:18;16.67;;;14.77;;
4986;SDS011;12674;51.500;7.552;2022-08-19T04:39:23;17.73;;;15.45;;
4986;SDS011;12674;51.500;7.552;2022-08-19T04:41:47;16.83;;;14.50;;
4986;SDS011;12674;51.500;7.552;2022-08-19T04:44:10;17.05;;;15.23;;
4986;SDS011;12674;51.500;7.552;2022-08-19T04:46:13;22.63;;;14.80;;
4986;SDS011;12674;51.500;7.552;2022-08-19T04:48:38;30.40;;;16.65;;
4986;SDS011;12674;51.500;7.552;2022-08-19T04:50:50;26.15;;;14.48;;
4986;SDS011;12674;51.500;7.552;2022-08-19T04:52:58;17.42;;;15.48;;
4986;SDS011;12674;51.500;7.552;2022-08-19T04:55:02;18.52;;;15.70;;
4986;SDS011;12674;51.500;7.552;2022-08-19T04:57:07;23.35;;;17.50;;
4986;SDS011;12674;51.500;7.552;2022-08-19T04:59:13;23.17;;;17.13;;
4986;SDS011;12674;51.500;7.552;2022-08-19T05:01:18;19.00;;;16.08;;
4986;SDS011;12674;51.500;7.552;2022-08-19T05:03:23;24.83;;;18.13;;
4986;SDS011;12674;51.500;7.552;2022-08-19T05:05:30;24.80;;;18.13;;
4986;SDS011;12674;51.500;7.552;2022-08-19T05:07:45;24.58;;;19.67;;
4986;SDS011;12674;51.500;7.552;2022-08-19T05:09:48;29.17;;;19.67;;
4986;SDS011;12674;51.500;7.552;2022-08-19T05:11:59;22.05;;;15.52;;
4986;SDS011;12674;51.500;7.552;2022-08-19T05:14:03;32.60;;;16.02;;
4986;SDS011;12674;51.500;7.552;2022-08-19T05:16:07;23.05;;;15.55;;
4986;SDS011;12674;51.500;7.552;2022-08-19T05:18:11;27.63;;;16.05;;
4986;SDS011;12674;51.500;7.552;2022-08-19T05:20:32;19.92;;;17.80;;
4986;SDS011;12674;51.500;7.552;2022-08-19T05:22:53;20.17;;;16.45;;
4986;SDS011;12674;51.500;7.552;2022-08-19T05:24:57;20.77;;;15.23;;
4986;SDS011;12674;51.500;7.552;2022-08-19T05:27:14;17.77;;;14.38;;
4986;SDS011;12674;51.500;7.552;2022-08-19T05:29:18;17.42;;;15.27;;
4986;SDS011;12674;51.500;7.552;2022-08-19T05:31:24;18.25;;;15.45;;
4986;SDS011;12674;51.500;7.552;2022-08-19T05:33:27;23.02;;;19.00;;
4986;SDS011;12674;51.500;7.552;2022-08-19T05:35:30;19.85;;;16.95;;
4986;SDS011;12674;51.500;7.552;2022-08-19T05:37:35;20.85;;;18.02;;
4986;SDS011;12674;51.500;7.552;2022-08-19T05:39:38;21.70;;;18.80;;
4986;SDS011;12674;51.500;7.552;2022-08-19T05:41:42;26.45;;;21.95;;
4986;SDS011;12674;51.500;7.552;2022-08-19T05:43:46;27.20;;;22.38;;
4986;SDS011;12674;51.500;7.552;2022-08-19T05:45:49;32.40;;;25.38;;
4986;SDS011;12674;51.500;7.552;2022-08-19T05:47:53;33.05;;;23.77;;
4986;SDS011;12674;51.500;7.552;2022-08-19T05:49:56;33.65;;;23.90;;
4986;SDS011;12674;51.500;7.552;2022-08-19T05:52:01;30.67;;;24.42;;
4986;SDS011;12674;51.500;7.552;2022-08-19T05:54:06;32.22;;;25.02;;
4986;SDS011;12674;51.500;7.552;2022-08-19T05:56:11;34.72;;;25.83;;
4986;SDS011;12674;51.500;7.552;2022-08-19T05:58:16;32.88;;;24.70;;
4986;SDS011;12674;51.500;7.552;2022-08-19T06:00:23;40.33;;;24.52;;
4986;SDS011;12674;51.500;7.552;2022-08-19T06:02:26;31.92;;;25.27;;
4986;SDS011;12674;51.500;7.552;2022-08-19T06:04:33;31.45;;;24.75;;
4986;SDS011;12674;51.500;7.552;2022-08-19T06:06:36;28.13;;;23.58;;
4986;SDS011;12674;51.500;7.552;2022-08-19T06:08:40;28.95;;;23.00;;
4986;SDS011;12674;51.500;7.552;2022-08-19T06:10:44;32.28;;;23.38;;
4986;SDS011;12674;51.500;7.552;2022-08-19T06:12:47;27.15;;;21.98;;
4986;SDS011;12674;51.500;7.552;2022-08-19T06:14:50;36.88;;;23.95;;
4986;SDS011;12674;51.500;7.552;2022-08-19T06:17:02;28.48;;;22.25;;
4986;SDS011;12674;51.500;7.552;2022-08-19T06:19:09;30.65;;;19.90;;
4986;SDS011;12674;51.500;7.552;2022-08-19T06:21:14;35.30;;;21.73;;
4986;SDS011;12674;51.500;7.552;2022-08-19T06:23:17;29.30;;;23.48;;
4986;SDS011;12674;51.500;7.552;2022-08-19T06:25:24;31.05;;;23.58;;
4986;SDS011;12674;51.500;7.552;2022-08-19T06:27:31;27.40;;;22.58;;
4986;SDS011;12674;51.500;7.552;2022-08-19T06:29:35;29.52;;;22.35;;
4986;SDS011;12674;51.500;7.552;2022-08-19T06:31:40;27.02;;;23.30;;
4986;SDS011;12674;51.500;7.552;2022-08-19T06:33:45;31.90;;;21.88;;
4986;SDS011;12674;51.500;7.552;2022-08-19T06:35:50;43.30;;;23.60;;
4986;SDS011;12674;51.500;7.552;2022-08-19T06:37:55;33.05;;;24.08;;
4986;SDS011;12674;51.500;7.552;2022-08-19T06:39:58;33.88;;;23.25;;
4986;SDS011;12674;51.500;7.552;2022-08-19T06:42:02;32.92;;;23.30;;
4986;SDS011;12674;51.500;7.552;2022-08-19T06:44:11;30.25;;;25.20;;
4986;SDS011;12674;51.500;7.552;2022-08-19T06:46:15;32.60;;;24.17;;
4986;SDS011;12674;51.500;7.552;2022-08-19T06:48:20;30.70;;;22.27;;
4986;SDS011;12674;51.500;7.552;2022-08-19T06:50:26;31.42;;;24.23;;
4986;SDS011;12674;51.500;7.552;2022-08-19T06:52:30;36.60;;;24.25;;
4986;SDS011;12674;51.500;7.552;2022-08-19T06:54:38;31.95;;;23.25;;
4986;SDS011;12674;51.500;7.552;2022-08-19T06:56:57;30.50;;;23.55;;
4986;SDS011;12674;51.500;7.552;2022-08-19T06:59:03;34.40;;;23.55;;
4986;SDS011;12674;51.500;7.552;2022-08-19T07:01:07;29.17;;;22.23;;
4986;SDS011;12674;51.500;7.552;2022-08-19T07:03:12;27.85;;;21.58;;
4986;SDS011;12674;51.500;7.552;2022-08-19T07:05:15;30.00;;;20.70;;
4986;SDS011;12674;51.500;7.552;2022-08-19T07:07:20;29.38;;;20.60;;
4986;SDS011;12674;51.500;7.552;2022-08-19T07:09:23;33.25;;;20.73;;
4986;SDS011;12674;51.500;7.552;2022-08-19T07:11:28;28.67;;;20.10;;
4986;SDS011;12674;51.500;7.552;2022-08-19T07:13:34;28.63;;;19.67;;
4986;SDS011;12674;51.500;7.552;2022-08-19T07:15:38;25.33;;;18.30;;
4986;SDS011;12674;51.500;7.552;2022-08-19T07:17:41;23.88;;;17.88;;
4986;SDS011;12674;51.500;7.552;2022-08-19T07:19:47;20.88;;;17.40;;
4986;SDS011;12674;51.500;7.552;2022-08-19T07:21:55;21.23;;;16.85;;
4986;SDS011;12674;51.500;7.552;2022-08-19T07:23:58;21.58;;;16.85;;
4986;SDS011;12674;51.500;7.552;2022-08-19T07:26:07;31.00;;;17.35;;
4986;SDS011;12674;51.500;7.552;2022-08-19T07:28:12;20.85;;;15.55;;
4986;SDS011;12674;51.500;7.552;2022-08-19T07:30:25;19.60;;;15.82;;
4986;SDS011;12674;51.500;7.552;2022-08-19T07:32:28;29.52;;;15.57;;
4986;SDS011;12674;51.500;7.552;2022-08-19T07:34:33;27.88;;;16.00;;
4986;SDS011;12674;51.500;7.552;2022-08-19T07:36:40;19.13;;;15.30;;
4986;SDS011;12674;51.500;7.552;2022-08-19T07:38:46;28.30;;;15.65;;
4986;SDS011;12674;51.500;7.552;2022-08-19T07:40:50;32.58;;;16.02;;
4986;SDS011;12674;51.500;7.552;2022-08-19T07:42:53;24.75;;;14.90;;
4986;SDS011;12674;51.500;7.552;2022-08-19T07:44:57;22.00;;;16.67;;
4986;SDS011;12674;51.500;7.552;2022-08-19T07:47:01;23.30;;;15.25;;
4986;SDS011;12674;51.500;7.552;2022-08-19T07:49:05;19.45;;;14.98;;
4986;SDS011;12674;51.500;7.552;2022-08-19T07:51:09;20.92;;;15.32;;
4986;SDS011;12674;51.500;7.552;2022-08-19T07:53:29;23.45;;;14.43;;
4986;SDS011;12674;51.500;7.552;2022-08-19T07:55:39;16.58;;;14.07;;
4986;SDS011;12674;51.500;7.552;2022-08-19T07:57:44;24.25;;;12.85;;
4986;SDS011;12674;51.500;7.552;2022-08-19T07:59:47;18.15;;;13.73;;
4986;SDS011;12674;51.500;7.552;2022-08-19T08:01:52;16.45;;;11.85;;
4986;SDS011;12674;51.500;7.552;2022-08-19T08:03:55;19.40;;;13.27;;
4986;SDS011;12674;51.500;7.552;2022-08-19T08:06:16;17.30;;;14.32;;
4986;SDS011;12674;51.500;7.552;2022-08-19T08:08:37;17.60;;;13.10;;
4986;SDS011;12674;51.500;7.552;2022-08-19T08:10:58;17.52;;;11.68;;
4986;SDS011;12674;51.500;7.552;2022-08-19T08:13:02;16.58;;;11.63;;
4986;SDS011;12674;51.500;7.552;2022-08-19T08:15:12;23.65;;;10.98;;
4986;SDS011;12674;51.500;7.552;2022-08-19T08:17:20;16.35;;;11.85;;
4986;SDS011;12674;51.500;7.552;2022-08-19T08:19:45;21.77;;;12.77;;
4986;SDS011;12674;51.500;7.552;2022-08-19T08:21:52;16.48;;;10.82;;
4986;SDS011;12674;51.500;7.552;2022-08-19T08:23:56;17.30;;;11.10;;
4986;SDS011;12674;51.500;7.552;2022-08-19T08:26:07;16.33;;;11.05;;
4986;SDS011;12674;51.500;7.552;2022-08-19T08:28:10;14.65;;;10.15;;
4986;SDS011;12674;51.500;7.552;2022-08-19T08:30:19;19.83;;;10.00;;
4986;SDS011;12674;51.500;7.552;2022-08-19T08:32:25;13.98;;;10.32;;
4986;SDS011;12674;51.500;7.552;2022-08-19T08:34:30;16.40;;;12.63;;
4986;SDS011;12674;51.500;7.552;2022-08-19T08:36:35;18.70;;;10.38;;
4986;SDS011;12674;51.500;7.552;2022-08-19T08:38:43;24.02;;;10.00;;
4986;SDS011;12674;51.500;7.552;2022-08-19T08:40:48;22.33;;;11.65;;
4986;SDS011;12674;51.500;7.552;2022-08-19T08:42:55;19.17;;;9.35;;
4986;SDS011;12674;51.500;7.552;2022-08-19T08:45:03;17.33;;;9.77;;
4986;SDS011;12674;51.500;7.552;2022-08-19T08:47:17;16.13;;;10.15;;
4986;SDS011;12674;51.500;7.552;2022-08-19T08:49:26;13.20;;;9.02;;
4986;SDS011;12674;51.500;7.552;2022-08-19T08:51:33;16.67;;;9.85;;
4986;SDS011;12674;51.500;7.552;2022-08-19T08:53:37;15.18;;;9.85;;
4986;SDS011;12674;51.500;7.552;2022-08-19T08:55:42;11.15;;;9.43;;
4986;SDS011;12674;51.500;7.552;2022-08-19T08:57:51;15.70;;;10.55;;
4986;SDS011;12674;51.500;7.552;2022-08-19T08:59:58;12.25;;;9.98;;
4986;SDS011;12674;51.500;7.552;2022-08-19T09:02:05;21.73;;;11.32;;
4986;SDS011;12674;51.500;7.552;2022-08-19T09:04:09;25.35;;;12.07;;
4986;SDS011;12674;51.500;7.552;2022-08-19T09:06:17;15.52;;;9.20;;
4986;SDS011;12674;51.500;7.552;2022-08-19T09:08:29;14.38;;;10.48;;
4986;SDS011;12674;51.500;7.552;2022-08-19T09:10:39;15.73;;;8.45;;
4986;SDS011;12674;51.500;7.552;2022-08-19T09:12:48;11.02;;;7.68;;
4986;SDS011;12674;51.500;7.552;2022-08-19T09:14:58;13.10;;;7.20;;
4986;SDS011;12674;51.500;7.552;2022-08-19T09:17:03;11.82;;;7.93;;
4986;SDS011;12674;51.500;7.552;2022-08-19T09:19:09;12.45;;;8.65;;
4986;SDS011;12674;51.500;7.552;2022-08-19T09:21:13;9.00;;;7.07;;
4986;SDS011;12674;51.500;7.552;2022-08-19T09:23:19;14.40;;;7.22;;
4986;SDS011;12674;51.500;7.552;2022-08-19T09:25:27;8.88;;;5.88;;
4986;SDS011;12674;51.500;7.552;2022-08-19T09:27:32;8.77;;;5.82;;
4986;SDS011;12674;51.500;7.552;2022-08-19T09:29:43;10.93;;;6.57;;
4986;SDS011;12674;51.500;7.552;2022-08-19T09:31:47;7.25;;;6.55;;
4986;SDS011;12674;51.500;7.552;2022-08-19T09:33:50;14.82;;;6.90;;
4986;SDS011;12674;51.500;7.552;2022-08-19T09:36:01;10.90;;;5.90;;
4986;SDS011;12674;51.500;7.552;2022-08-19T09:38:09;8.70;;;7.80;;
4986;SDS011;12674;51.500;7.552;2022-08-19T09:40:13;13.52;;;6.72;;
4986;SDS011;12674;51.500;7.552;2022-08-19T09:42:16;11.35;;;6.90;;
4986;SDS011;12674;51.500;7.552;2022-08-19T09:44:35;10.32;;;6.70;;
4986;SDS011;12674;51.500;7.552;2022-08-19T09:46:38;20.38;;;8.10;;
4986;SDS011;12674;51.500;7.552;2022-08-19T09:48:41;12.05;;;8.43;;
4986;SDS011;12674;51.500;7.552;2022-08-19T09:50:46;20.63;;;8.82;;
4986;SDS011;12674;51.500;7.552;2022-08-19T09:52:52;15.23;;;9.00;;
4986;SDS011;12674;51.500;7.552;2022-08-19T09:54:58;13.88;;;8.13;;
4986;SDS011;12674;51.500;7.552;2022-08-19T09:57:09;9.70;;;7.47;;
4986;SDS011;12674;51.500;7.552;2022-08-19T09:59:12;14.57;;;7.97;;
4986;SDS011;12674;51.500;7.552;2022-08-19T10:01:16;12.65;;;8.20;;
4986;SDS011;12674;51.500;7.552;2022-08-19T10:03:20;9.35;;;8.15;;
4986;SDS011;12674;51.500;7.552;2022-08-19T10:05:30;12.05;;;7.05;;
4986;SDS011;12674;51.500;7.552;2022-08-19T10:07:50;8.43;;;7.38;;
4986;SDS011;12674;51.500;7.552;2022-08-19T10:09:53;7.40;;;6.55;;
4986;SDS011;12674;51.500;7.552;2022-08-19T10:11:56;20.70;;;9.88;;
4986;SDS011;12674;51.500;7.552;2022-08-19T10:14:04;11.60;;;6.55;;
4986;SDS011;12674;51.500;7.552;2022-08-19T10:16:09;8.95;;;7.97;;
4986;SDS011;12674;51.500;7.552;2022-08-19T10:18:13;11.68;;;8.48;;
4986;SDS011;12674;51.500;7.552;2022-08-19T10:20:17;12.20;;;8.30;;
4986;SDS011;12674;51.500;7.552;2022-08-19T10:22:21;11.80;;;7.32;;
4986;SDS011;12674;51.500;7.552;2022-08-19T10:24:26;11.85;;;6.95;;
4986;SDS011;12674;51.500;7.552;2022-08-19T10:26:30;16.65;;;6.40;;
4986;SDS011;12674;51.500;7.552;2022-08-19T10:28:37;10.75;;;6.05;;
4986;SDS011;12674;51.500;7.552;2022-08-19T10:30:44;28.60;;;10.95;;
4986;SDS011;12674;51.500;7.552;2022-08-19T10:32:47;14.35;;;9.77;;
4986;SDS011;12674;51.500;7.552;2022-08-19T10:34:50;14.82;;;10.15;;
4986;SDS011;12674;51.500;7.552;2022-08-19T10:36:58;20.10;;;9.73;;
4986;SDS011;12674;51.500;7.552;2022-08-19T10:39:04;13.52;;;9.23;;
4986;SDS011;12674;51.500;7.552;2022-08-19T10:41:10;15.43;;;8.02;;
4986;SDS011;12674;51.500;7.552;2022-08-19T10:43:14;13.32;;;7.68;;
4986;SDS011;12674;51.500;7.552;2022-08-19T10:45:17;8.88;;;6.03;;
4986;SDS011;12674;51.500;7.552;2022-08-19T10:47:26;10.18;;;7.05;;
4986;SDS011;12674;51.500;7.552;2022-08-19T10:49:34;8.40;;;6.88;;
4986;SDS011;12674;51.500;7.552;2022-08-19T10:51:57;10.13;;;8.15;;
4986;SDS011;12674;51.500;7.552;2022-08-19T10:54:21;8.30;;;7.43;;
4986;SDS011;12674;51.500;7.552;2022-08-19T10:56:34;10.98;;;7.05;;
4986;SDS011;12674;51.500;7.552;2022-08-19T10:58:58;9.80;;;6.25;;
4986;SDS011;12674;51.500;7.552;2022-08-19T11:01:01;18.20;;;7.18;;
4986;SDS011;12674;51.500;7.552;2022-08-19T11:03:08;10.82;;;6.50;;
4986;SDS011;12674;51.500;7.552;2022-08-19T11:05:12;10.50;;;8.18;;
4986;SDS011;12674;51.500;7.552;2022-08-19T11:07:16;7.55;;;6.85;;
4986;SDS011;12674;51.500;7.552;2022-08-19T11:09:20;8.65;;;6.68;;
4986;SDS011;12674;51.500;7.552;2022-08-19T11:11:34;16.80;;;7.70;;
4986;SDS011;12674;51.500;7.552;2022-08-19T11:13:42;8.07;;;6.68;;
4986;SDS011;12674;51.500;7.552;2022-08-19T11:15:47;14.00;;;8.70;;
4986;SDS011;12674;51.500;7.552;2022-08-19T11:17:50;9.18;;;7.70;;
4986;SDS011;12674;51.500;7.552;2022-08-19T11:19:57;11.90;;;7.00;;
4986;SDS011;12674;51.500;7.552;2022-08-19T11:22:07;10.35;;;8.40;;
4986;SDS011;12674;51.500;7.552;2022-08-19T11:24:11;8.15;;;7.28;;
4986;SDS011;12674;51.500;7.552;2022-08-19T11:26:17;12.07;;;6.88;;
4986;SDS011;12674;51.500;7.552;2022-08-19T11:28:20;12.13;;;7.25;;
4986;SDS011;12674;51.500;7.552;2022-08-19T11:30:23;10.75;;;6.70;;
4986;SDS011;12674;51.500;7.552;2022-08-19T11:32:26;9.27;;;6.35;;
4986;SDS011;12674;51.500;7.552;2022-08-19T11:34:29;6.45;;;5.15;;
4986;SDS011;12674;51.500;7.552;2022-08-19T11:36:34;5.57;;;4.72;;
4986;SDS011;12674;51.500;7.552;2022-08-19T11:38:40;6.45;;;4.75;;
4986;SDS011;12674;51.500;7.552;2022-08-19T11:40:42;5.40;;;4.90;;
4986;SDS011;12674;51.500;7.552;2022-08-19T11:42:45;6.88;;;4.28;;
4986;SDS011;12674;51.500;7.552;2022-08-19T11:44:58;6.88;;;6.00;;
4986;SDS011;12674;51.500;7.552;2022-08-19T11:47:01;8.85;;;5.93;;
4986;SDS011;12674;51.500;7.552;2022-08-19T11:49:09;12.07;;;5.82;;
4986;SDS011;12674;51.500;7.552;2022-08-19T11:51:16;11.98;;;6.57;;
4986;SDS011;12674;51.500;7.552;2022-08-19T11:53:21;8.13;;;5.50;;
4986;SDS011;12674;51.500;7.552;2022-08-19T11:55:25;8.05;;;6.45;;
4986;SDS011;12674;51.500;7.552;2022-08-19T11:57:28;9.43;;;4.75;;
4986;SDS011;12674;51.500;7.552;2022-08-19T11:59:31;8.13;;;6.97;;
4986;SDS011;12674;51.500;7.552;2022-08-19T12:01:34;10.35;;;5.57;;
4986;SDS011;12674;51.500;7.552;2022-08-19T12:03:37;7.85;;;4.85;;
4986;SDS011;12674;51.500;7.552;2022-08-19T12:05:41;7.13;;;5.47;;
4986;SDS011;12674;51.500;7.552;2022-08-19T12:07:44;5.18;;;4.68;;
4986;SDS011;12674;51.500;7.552;2022-08-19T12:09:49;6.20;;;4.82;;
4986;SDS011;12674;51.500;7.552;2022-08-19T12:11:52;8.40;;;5.25;;
4986;SDS011;12674;51.500;7.552;2022-08-19T12:13:55;7.28;;;4.88;;
4986;SDS011;12674;51.500;7.552;2022-08-19T12:15:58;6.45;;;4.35;;
4986;SDS011;12674;51.500;7.552;2022-08-19T12:18:01;5.75;;;3.95;;
4986;SDS011;12674;51.500;7.552;2022-08-19T12:20:04;5.57;;;4.20;;
4986;SDS011;12674;51.500;7.552;2022-08-19T12:22:10;8.43;;;5.32;;
4986;SDS011;12674;51.500;7.552;2022-08-19T12:24:13;12.75;;;6.25;;
4986;SDS011;12674;51.500;7.552;2022-08-19T12:26:18;10.98;;;5.45;;
4986;SDS011;12674;51.500;7.552;2022-08-19T12:28:22;8.80;;;5.47;;
4986;SDS011;12674;51.500;7.552;2022-08-19T12:30:26;12.25;;;6.47;;
4986;SDS011;12674;51.500;7.552;2022-08-19T12:32:29;9.48;;;7.05;;
4986;SDS011;12674;51.500;7.552;2022-08-19T12:34:32;13.23;;;7.35;;
4986;SDS011;12674;51.500;7.552;2022-08-19T12:36:35;9.20;;;8.07;;